createdAt,value
2022-11-05T00:01:14.405Z,8.65
2022-11-05T00:04:01.739Z,8.27
2022-11-05T00:06:48.459Z,8.70
2022-11-05T00:09:32.041Z,8.30
2022-11-05T00:12:22.763Z,8.98
2022-11-05T00:15:10.125Z,10.95
2022-11-05T00:17:39.900Z,9.23
2022-11-05T00:20:13.785Z,9.63
2022-11-05T00:23:00.810Z,10.32
2022-11-05T00:25:30.811Z,11.35
2022-11-05T00:28:04.871Z,9.52
2022-11-05T00:30:35.078Z,11.40
2022-11-05T00:33:04.855Z,10.43
2022-11-05T00:35:34.689Z,9.90
2022-11-05T00:38:04.004Z,10.32
2022-11-05T00:40:33.703Z,10.52
2022-11-05T00:43:21.532Z,10.48
2022-11-05T00:45:51.475Z,11.02
2022-11-05T00:48:38.093Z,10.93
2022-11-05T00:51:08.170Z,11.60
2022-11-05T00:53:38.097Z,12.95
2022-11-05T00:56:08.595Z,12.85
2022-11-05T00:58:39.555Z,13.00
2022-11-05T01:01:11.714Z,12.93
2022-11-05T01:03:45.069Z,12.63
2022-11-05T01:06:19.047Z,13.55
2022-11-05T01:08:48.928Z,15.00
2022-11-05T01:11:34.105Z,13.65
2022-11-05T01:14:07.887Z,13.82
2022-11-05T01:16:38.584Z,14.75
2022-11-05T01:19:11.232Z,14.85
2022-11-05T01:21:41.284Z,15.50
2022-11-05T01:24:12.463Z,15.10
2022-11-05T01:26:42.311Z,15.05
2022-11-05T01:29:13.264Z,14.48
2022-11-05T01:31:43.371Z,14.35
2022-11-05T01:34:12.635Z,14.85
2022-11-05T01:36:42.867Z,16.42
2022-11-05T01:39:12.717Z,14.68
2022-11-05T01:41:42.683Z,14.68
2022-11-05T01:44:47.323Z,15.38
2022-11-05T01:47:27.562Z,17.23
2022-11-05T01:49:58.543Z,16.10
2022-11-05T01:52:30.551Z,16.35
2022-11-05T01:55:00.655Z,17.23
2022-11-05T01:57:31.491Z,17.77
2022-11-05T02:00:02.635Z,19.00
2022-11-05T02:02:34.229Z,16.58
2022-11-05T02:10:07.380Z,14.55
2022-11-05T02:12:40.223Z,15.80
2022-11-05T02:15:13.127Z,16.85
2022-11-05T02:17:55.744Z,16.55
2022-11-05T02:20:46.791Z,17.35
2022-11-05T02:23:50.524Z,14.95
2022-11-05T02:26:53.895Z,13.57
2022-11-05T02:30:03.378Z,13.82
2022-11-05T02:32:56.871Z,14.90
2022-11-05T02:35:44.847Z,14.70
2022-11-05T02:38:20.183Z,15.85
2022-11-05T02:40:57.497Z,16.50
2022-11-05T02:43:32.200Z,16.70
2022-11-05T02:46:10.106Z,16.42
2022-11-05T02:48:49.429Z,16.48
2022-11-05T02:51:28.759Z,15.43
2022-11-05T02:54:03.739Z,15.70
2022-11-05T02:56:37.330Z,16.05
2022-11-05T02:59:06.568Z,15.82
2022-11-05T03:01:38.225Z,16.43
2022-11-05T03:04:12.398Z,15.32
2022-11-05T03:06:58.114Z,18.85
2022-11-05T03:09:38.545Z,18.00
2022-11-05T03:12:19.826Z,17.73
2022-11-05T03:14:59.100Z,19.55
2022-11-05T03:17:38.155Z,19.05
2022-11-05T03:20:18.686Z,19.88
2022-11-05T03:22:56.111Z,19.70
2022-11-05T03:25:28.684Z,20.67
2022-11-05T03:28:05.225Z,19.10
2022-11-05T03:30:37.010Z,19.90
2022-11-05T03:33:12.712Z,20.25
2022-11-05T03:35:48.683Z,20.52
2022-11-05T03:38:24.580Z,21.42
2022-11-05T03:40:56.683Z,20.38
2022-11-05T03:43:31.800Z,19.85
2022-11-05T03:46:05.049Z,21.67
2022-11-05T03:48:38.116Z,19.80
2022-11-05T03:51:13.484Z,21.17
2022-11-05T03:53:47.776Z,21.70
2022-11-05T03:56:22.467Z,22.23
2022-11-05T03:58:58.500Z,22.45
2022-11-05T04:01:29.031Z,23.30
2022-11-05T04:03:59.095Z,21.30
2022-11-05T04:06:47.179Z,21.30
2022-11-05T04:09:34.176Z,23.58
2022-11-05T04:12:20.658Z,22.08
2022-11-05T04:14:50.627Z,24.63
2022-11-05T04:17:18.756Z,24.83
2022-11-05T04:20:05.995Z,25.63
2022-11-05T04:22:55.304Z,23.70
2022-11-05T04:25:25.811Z,23.10
2022-11-05T04:27:55.160Z,25.77
2022-11-05T04:30:23.689Z,25.85
2022-11-05T04:33:05.114Z,26.50
2022-11-05T04:35:37.042Z,24.73
2022-11-05T04:38:10.009Z,26.35
2022-11-05T04:40:40.198Z,26.35
2022-11-05T04:43:15.110Z,25.15
2022-11-05T04:45:45.491Z,26.55
2022-11-05T04:48:15.265Z,28.13
2022-11-05T04:50:45.216Z,26.30
2022-11-05T04:53:15.989Z,27.38
2022-11-05T04:55:45.588Z,26.92
2022-11-05T04:58:15.040Z,24.95
2022-11-05T05:00:45.051Z,24.60
2022-11-05T05:03:14.453Z,23.48
2022-11-05T05:05:44.336Z,23.48
2022-11-05T05:08:15.099Z,24.23
2022-11-05T05:10:45.030Z,24.02
2022-11-05T05:13:14.304Z,23.38
2022-11-05T05:15:44.443Z,24.60
2022-11-05T05:18:13.751Z,24.55
2022-11-05T05:21:01.377Z,26.40
2022-11-05T05:23:32.112Z,23.38
2022-11-05T05:26:02.318Z,25.23
2022-11-05T05:28:31.563Z,25.58
2022-11-05T05:31:01.904Z,23.88
2022-11-05T05:33:31.149Z,24.73
2022-11-05T05:36:05.851Z,23.20
2022-11-05T05:38:40.988Z,23.42
2022-11-05T05:41:10.566Z,23.05
2022-11-05T05:43:40.058Z,20.80
2022-11-05T05:46:13.268Z,19.80
2022-11-05T05:48:43.592Z,21.67
2022-11-05T05:51:14.110Z,22.08
2022-11-05T05:53:44.951Z,20.85
2022-11-05T05:56:19.427Z,21.80
2022-11-05T05:58:48.914Z,22.98
2022-11-05T06:01:20.261Z,21.13
2022-11-05T06:03:50.467Z,21.35
2022-11-05T06:06:21.377Z,23.17
2022-11-05T06:08:52.334Z,21.15
2022-11-05T06:11:22.166Z,21.23
2022-11-05T06:13:51.674Z,21.65
2022-11-05T06:16:21.328Z,21.45
2022-11-05T06:18:51.087Z,20.13
2022-11-05T06:21:21.084Z,20.20
2022-11-05T06:23:51.791Z,18.85
2022-11-05T06:26:21.760Z,20.38
2022-11-05T06:28:51.032Z,18.52
2022-11-05T06:31:20.643Z,18.23
2022-11-05T06:33:50.041Z,18.05
2022-11-05T06:36:21.245Z,17.67
2022-11-05T06:38:51.972Z,18.35
2022-11-05T06:41:22.246Z,18.42
2022-11-05T06:43:51.598Z,17.40
2022-11-05T06:46:21.559Z,17.87
2022-11-05T06:48:51.284Z,17.88
2022-11-05T06:51:21.359Z,17.58
2022-11-05T06:53:52.102Z,18.33
2022-11-05T06:56:22.053Z,18.98
2022-11-05T06:58:51.669Z,19.45
2022-11-05T07:01:21.627Z,17.88
2022-11-05T07:03:50.920Z,19.23
2022-11-05T07:06:21.146Z,18.48
2022-11-05T07:08:51.880Z,20.73
2022-11-05T07:11:21.824Z,21.88
2022-11-05T07:13:51.296Z,20.17
2022-11-05T07:16:21.248Z,22.40
2022-11-05T07:18:50.505Z,20.20
2022-11-05T07:21:20.888Z,19.75
2022-11-05T07:23:51.766Z,19.10
2022-11-05T07:26:21.702Z,19.00
2022-11-05T07:28:50.978Z,19.55
2022-11-05T07:31:21.134Z,19.15
2022-11-05T07:33:50.668Z,19.52
2022-11-05T07:36:20.830Z,18.67
2022-11-05T07:38:53.891Z,19.73
2022-11-05T07:41:27.412Z,20.15
2022-11-05T07:43:56.686Z,20.52
2022-11-05T07:46:26.903Z,20.75
2022-11-05T07:48:56.391Z,21.80
2022-11-05T07:51:26.416Z,19.35
2022-11-05T07:53:57.105Z,23.42
2022-11-05T07:56:26.952Z,23.20
2022-11-05T07:58:56.416Z,24.30
2022-11-05T08:01:26.189Z,26.55
2022-11-05T08:03:55.768Z,23.80
2022-11-05T08:06:25.934Z,25.95
2022-11-05T08:08:56.733Z,23.40
2022-11-05T08:11:26.687Z,24.08
2022-11-05T08:13:56.003Z,22.27
2022-11-05T08:16:25.695Z,23.73
2022-11-05T08:18:54.995Z,19.48
2022-11-05T08:21:24.740Z,19.02
2022-11-05T08:23:54.217Z,18.88
2022-11-05T08:26:25.670Z,20.63
2022-11-05T08:28:54.932Z,17.38
2022-11-05T08:31:25.357Z,17.63
2022-11-05T08:33:59.736Z,24.15
2022-11-05T08:36:32.228Z,19.48
2022-11-05T08:39:01.466Z,16.58
2022-11-05T08:41:32.920Z,16.98
2022-11-05T08:44:02.144Z,16.80
2022-11-05T08:46:32.110Z,17.25
2022-11-05T08:49:01.568Z,16.45
2022-11-05T08:51:31.698Z,16.13
2022-11-05T08:54:01.209Z,15.95
2022-11-05T08:56:32.655Z,17.02
2022-11-05T08:59:02.535Z,15.93
2022-11-05T09:01:32.533Z,16.50
2022-11-05T09:04:02.441Z,15.90
2022-11-05T09:06:32.735Z,15.70
2022-11-05T09:09:02.154Z,16.90
2022-11-05T09:12:05.238Z,17.60
2022-11-05T09:14:22.744Z,16.30
2022-11-05T09:16:52.628Z,15.13
2022-11-05T09:19:22.058Z,14.38
2022-11-05T09:21:52.446Z,13.38
2022-11-05T09:24:21.954Z,13.07
2022-11-05T09:26:53.414Z,12.63
2022-11-05T09:29:23.064Z,13.23
2022-11-05T09:31:53.059Z,12.88
2022-11-05T09:34:22.541Z,13.18
2022-11-05T09:36:52.515Z,12.60
2022-11-05T09:39:21.793Z,12.85
2022-11-05T09:41:53.576Z,11.90
2022-11-05T09:44:26.989Z,12.35
2022-11-05T09:47:00.264Z,13.27
2022-11-05T09:49:32.355Z,11.73
2022-11-05T09:52:02.525Z,11.07
2022-11-05T09:54:33.533Z,9.70
2022-11-05T09:57:07.212Z,8.60
2022-11-05T09:59:43.462Z,6.43
2022-11-05T10:02:19.064Z,6.15
2022-11-05T10:04:51.943Z,6.00
2022-11-05T10:07:25.285Z,5.80
2022-11-05T10:09:58.557Z,4.97
2022-11-05T10:12:36.104Z,4.32
2022-11-05T10:15:12.300Z,4.32
2022-11-05T10:17:48.550Z,5.68
2022-11-05T10:20:26.256Z,4.10
2022-11-05T10:23:00.416Z,3.97
2022-11-05T10:25:35.057Z,5.55
2022-11-05T10:28:07.747Z,4.47
2022-11-05T10:30:37.436Z,3.72
2022-11-05T10:33:10.404Z,3.78
2022-11-05T10:35:51.870Z,4.10
2022-11-05T10:38:22.215Z,4.47
2022-11-05T10:41:03.875Z,3.17
2022-11-05T10:43:41.160Z,3.30
2022-11-05T10:46:26.303Z,3.00
2022-11-05T10:49:06.968Z,3.00
2022-11-05T10:51:36.813Z,2.40
2022-11-05T10:54:17.579Z,1.88
2022-11-05T10:56:47.063Z,2.30
2022-11-05T10:59:26.299Z,1.92
2022-11-05T11:02:01.463Z,1.98
2022-11-05T11:04:37.717Z,2.25
2022-11-05T11:07:07.724Z,2.28
2022-11-05T11:09:38.957Z,2.17
2022-11-05T11:12:16.051Z,1.83
2022-11-05T11:15:03.014Z,2.47
2022-11-05T11:17:33.802Z,1.65
2022-11-05T11:20:23.887Z,1.40
2022-11-05T11:23:06.702Z,1.38
2022-11-05T11:25:44.474Z,1.75
2022-11-05T11:28:20.599Z,1.42
2022-11-05T11:30:56.612Z,1.92
2022-11-05T11:33:30.144Z,1.45
2022-11-05T11:36:00.970Z,1.20
2022-11-05T11:38:33.164Z,1.48
2022-11-05T11:41:07.178Z,1.90
2022-11-05T11:43:38.771Z,1.13
2022-11-05T11:46:16.169Z,1.80
2022-11-05T11:48:48.759Z,1.25
2022-11-05T11:51:30.830Z,1.80
2022-11-05T11:54:01.287Z,1.83
2022-11-05T11:56:32.805Z,1.50
2022-11-05T11:59:11.644Z,1.63
2022-11-05T12:02:21.468Z,1.52
2022-11-05T12:05:12.020Z,1.70
2022-11-05T12:10:28.623Z,1.70
2022-11-05T12:13:19.805Z,1.70
2022-11-05T12:15:53.557Z,3.10
2022-11-05T12:18:34.143Z,2.60
2022-11-05T12:21:09.235Z,2.08
2022-11-05T12:24:02.747Z,1.92
2022-11-05T12:26:43.493Z,1.45
2022-11-05T12:29:38.335Z,2.13
2022-11-05T12:32:37.123Z,1.58
2022-11-05T12:35:19.913Z,2.22
2022-11-05T12:37:57.304Z,2.60
2022-11-05T12:40:48.487Z,2.22
2022-11-05T12:43:31.400Z,2.80
2022-11-05T12:46:10.427Z,2.92
2022-11-05T12:48:54.923Z,2.28
2022-11-05T12:51:39.316Z,1.92
2022-11-05T12:54:24.467Z,2.47
2022-11-05T12:56:58.017Z,2.50
2022-11-05T12:59:33.119Z,2.42
2022-11-05T13:02:22.547Z,2.90
2022-11-05T13:04:55.976Z,2.60
2022-11-05T13:07:31.612Z,2.47
2022-11-05T13:10:05.698Z,2.40
2022-11-05T13:12:40.221Z,2.63
2022-11-05T13:15:22.073Z,2.05
2022-11-05T13:17:55.648Z,2.72
2022-11-05T13:20:29.223Z,3.22
2022-11-05T13:23:02.611Z,2.38
2022-11-05T13:25:36.662Z,2.33
2022-11-05T13:28:16.501Z,1.98
2022-11-05T13:30:48.501Z,2.58
2022-11-05T13:33:24.067Z,2.88
2022-11-05T13:36:13.363Z,3.25
2022-11-05T13:39:07.397Z,3.72
2022-11-05T13:41:54.632Z,2.75
2022-11-05T13:44:49.657Z,3.85
2022-11-05T13:47:44.564Z,2.67
2022-11-05T13:50:32.968Z,2.85
2022-11-05T13:53:27.625Z,3.00
2022-11-05T13:56:06.654Z,2.53
2022-11-05T13:59:02.075Z,2.35
2022-11-05T14:01:45.812Z,2.47
2022-11-05T14:04:35.742Z,2.60
2022-11-05T14:07:12.206Z,2.63
2022-11-05T14:09:43.402Z,2.58
2022-11-05T14:12:23.038Z,2.10
2022-11-05T14:14:58.852Z,2.35
2022-11-05T14:17:34.035Z,2.78
2022-11-05T14:20:26.591Z,2.88
2022-11-05T14:23:49.836Z,2.90
2022-11-05T14:26:22.441Z,2.70
2022-11-05T14:29:24.878Z,3.03
2022-11-05T14:32:14.628Z,4.00
2022-11-05T14:34:47.832Z,2.50
2022-11-05T14:37:33.817Z,2.85
2022-11-05T14:40:30.511Z,2.67
2022-11-05T14:43:03.110Z,2.88
2022-11-05T14:45:37.596Z,2.92
2022-11-05T14:48:08.831Z,3.60
2022-11-05T14:50:41.101Z,2.47
2022-11-05T14:53:26.220Z,4.75
2022-11-05T14:56:02.710Z,3.53
2022-11-05T14:58:35.707Z,4.20
2022-11-05T15:01:09.513Z,3.47
2022-11-05T15:04:17.533Z,4.30
2022-11-05T15:07:26.177Z,2.47
2022-11-05T15:10:04.293Z,3.53
2022-11-05T15:12:42.261Z,2.97
2022-11-05T15:15:24.979Z,2.90
2022-11-05T15:18:07.996Z,3.13
2022-11-05T15:20:41.068Z,3.28
2022-11-05T15:23:15.450Z,3.80
2022-11-05T15:25:53.512Z,4.93
2022-11-05T15:28:32.261Z,3.60
2022-11-05T15:31:03.820Z,3.85
2022-11-05T15:33:35.326Z,3.55
2022-11-05T15:36:12.728Z,3.50
2022-11-05T15:39:02.034Z,4.32
2022-11-05T15:41:34.812Z,12.50
2022-11-05T15:44:05.237Z,6.20
2022-11-05T15:46:34.784Z,4.75
2022-11-05T15:49:09.207Z,5.50
2022-11-05T15:51:38.667Z,4.90
2022-11-05T15:54:30.274Z,4.55
2022-11-05T15:57:01.619Z,5.10
2022-11-05T15:59:32.165Z,4.40
2022-11-05T16:02:16.356Z,4.70
2022-11-05T16:04:50.388Z,5.13
2022-11-05T16:07:21.518Z,5.50
2022-11-05T16:09:57.679Z,5.35
2022-11-05T16:12:34.991Z,6.53
2022-11-05T16:15:21.139Z,5.15
2022-11-05T16:17:53.632Z,5.93
2022-11-05T16:20:29.805Z,5.70
2022-11-05T16:23:01.881Z,8.57
2022-11-05T16:25:40.744Z,7.90
2022-11-05T16:28:23.447Z,8.02
2022-11-05T16:30:57.392Z,6.78
2022-11-05T16:33:28.849Z,5.32
2022-11-05T16:36:00.412Z,6.18
2022-11-05T16:38:29.824Z,10.07
2022-11-05T16:41:00.631Z,9.80
2022-11-05T16:43:30.297Z,10.10
2022-11-05T16:46:01.804Z,11.43
2022-11-05T16:48:31.317Z,9.70
2022-11-05T16:51:02.746Z,7.97
2022-11-05T16:53:32.028Z,9.90
2022-11-05T16:56:02.044Z,10.07
2022-11-05T16:58:31.837Z,7.72
2022-11-05T17:01:05.711Z,7.65
2022-11-05T17:03:35.143Z,7.85
2022-11-05T17:06:07.200Z,6.67
2022-11-05T17:08:37.040Z,7.35
2022-11-05T17:11:07.531Z,7.75
2022-11-05T17:13:36.850Z,7.73
2022-11-05T17:16:07.314Z,7.87
2022-11-05T17:18:36.622Z,8.82
2022-11-05T17:21:09.325Z,7.50
2022-11-05T17:23:39.879Z,8.75
2022-11-05T17:26:12.088Z,9.32
2022-11-05T17:28:42.203Z,8.00
2022-11-05T17:31:15.487Z,9.95
2022-11-05T17:33:45.294Z,9.80
2022-11-05T17:36:17.974Z,8.77
2022-11-05T17:38:47.294Z,8.80
2022-11-05T17:41:20.622Z,8.83
2022-11-05T17:43:54.504Z,9.95
2022-11-05T17:46:25.852Z,8.85
2022-11-05T17:48:55.592Z,9.55
2022-11-05T17:51:27.058Z,10.70
2022-11-05T17:53:59.469Z,8.88
2022-11-05T17:56:35.019Z,9.65
2022-11-05T17:59:06.663Z,8.77
2022-11-05T18:04:09.159Z,10.43
2022-11-05T18:06:42.108Z,9.02
2022-11-05T18:09:12.533Z,9.90
2022-11-05T18:11:42.899Z,10.65
2022-11-05T18:14:12.224Z,9.87
2022-11-05T18:16:42.100Z,10.07
2022-11-05T18:19:11.929Z,11.05
2022-11-05T18:24:13.104Z,9.85
2022-11-05T18:26:43.987Z,8.93
2022-11-05T18:29:13.232Z,8.98
2022-11-05T18:31:43.364Z,11.03
2022-11-05T18:34:13.255Z,9.38
2022-11-05T18:36:46.100Z,8.63
2022-11-05T18:39:15.581Z,8.52
2022-11-05T18:41:45.824Z,8.95
2022-11-05T18:44:22.971Z,9.77
2022-11-05T18:46:58.032Z,9.60
2022-11-05T18:49:28.232Z,9.75
2022-11-05T18:51:59.348Z,7.80
2022-11-05T18:54:28.835Z,8.90
2022-11-05T18:56:59.107Z,8.07
2022-11-05T18:59:38.750Z,8.35
2022-11-05T19:02:12.393Z,7.90
2022-11-05T19:04:55.299Z,7.65
2022-11-05T19:07:33.876Z,7.05
2022-11-05T19:10:03.161Z,8.75
2022-11-05T19:12:32.880Z,9.80
2022-11-05T19:15:02.998Z,9.07
2022-11-05T19:17:34.998Z,8.38
2022-11-05T19:20:04.707Z,10.68
2022-11-05T19:22:36.276Z,10.90
2022-11-05T19:25:06.636Z,10.77
2022-11-05T19:27:37.868Z,10.95
2022-11-05T19:30:07.804Z,10.13
2022-11-05T19:32:38.060Z,8.63
2022-11-05T19:35:07.845Z,8.25
2022-11-05T19:37:39.169Z,8.30
2022-11-05T19:42:39.202Z,8.45
2022-11-05T19:45:30.851Z,7.28
2022-11-05T19:47:59.509Z,6.47
2022-11-05T19:50:28.755Z,6.10
2022-11-05T19:53:00.226Z,5.97
2022-11-05T19:55:29.525Z,6.80
2022-11-05T19:57:59.774Z,7.40
2022-11-05T20:00:29.028Z,6.18
2022-11-05T20:02:58.849Z,5.90
2022-11-05T20:05:28.313Z,5.82
2022-11-05T20:07:59.783Z,7.23
2022-11-05T20:10:29.159Z,5.90
2022-11-05T20:12:58.839Z,6.40
2022-11-05T20:15:28.429Z,7.95
2022-11-05T20:17:58.639Z,8.98
2022-11-05T20:20:28.228Z,8.75
2022-11-05T20:23:01.935Z,7.32
2022-11-05T20:25:31.332Z,7.47
2022-11-05T20:28:01.565Z,7.63
2022-11-05T20:30:31.138Z,7.78
2022-11-05T20:33:01.132Z,7.68
2022-11-05T20:35:33.263Z,8.55
2022-11-05T20:38:04.790Z,7.32
2022-11-05T20:40:34.423Z,7.80
2022-11-05T20:43:04.586Z,7.78
2022-11-05T20:45:33.985Z,7.43
2022-11-05T20:48:03.730Z,6.68
2022-11-05T20:50:32.996Z,7.20
2022-11-05T20:53:04.541Z,6.85
2022-11-05T20:55:33.981Z,6.10
2022-11-05T20:58:03.804Z,6.07
2022-11-05T21:00:33.178Z,5.85
2022-11-05T21:03:03.450Z,5.87
2022-11-05T21:05:35.574Z,6.18
2022-11-05T21:08:07.755Z,6.07
2022-11-05T21:10:37.056Z,5.82
2022-11-05T21:13:07.135Z,4.97
2022-11-05T21:15:36.682Z,5.15
2022-11-05T21:18:06.709Z,4.30
2022-11-05T21:20:36.059Z,4.38
2022-11-05T21:23:07.352Z,4.43
2022-11-05T21:28:09.880Z,4.47
2022-11-05T21:30:41.860Z,4.68
2022-11-05T21:33:12.125Z,3.55
2022-11-05T21:35:44.163Z,5.93
2022-11-05T21:38:17.659Z,4.60
2022-11-05T21:40:47.464Z,5.15
2022-11-05T21:43:18.523Z,4.40
2022-11-05T21:45:48.082Z,5.35
2022-11-05T21:48:18.420Z,4.35
2022-11-05T21:51:10.405Z,4.38
2022-11-05T21:53:59.840Z,4.18
2022-11-05T21:56:47.454Z,4.35
2022-11-05T21:59:36.177Z,4.82
2022-11-05T22:02:06.157Z,4.95
2022-11-05T22:04:37.831Z,4.40
2022-11-05T22:07:08.412Z,4.07
2022-11-05T22:09:40.188Z,4.38
2022-11-05T22:14:39.638Z,3.28
2022-11-05T22:17:09.822Z,3.67
2022-11-05T22:19:39.460Z,3.97
2022-11-05T22:22:08.900Z,5.00
2022-11-05T22:24:41.457Z,3.40
2022-11-05T22:27:14.814Z,4.10
2022-11-05T22:29:44.839Z,3.58
2022-11-05T22:32:14.664Z,3.55
2022-11-05T22:34:44.976Z,3.67
2022-11-05T22:37:14.738Z,3.45
2022-11-05T22:39:46.169Z,3.63
2022-11-05T22:42:15.739Z,3.15
2022-11-05T22:44:45.579Z,4.20
2022-11-05T22:47:15.407Z,3.38
2022-11-05T22:49:45.611Z,4.13
2022-11-05T22:52:14.890Z,3.95
2022-11-05T22:54:47.956Z,3.65
2022-11-05T22:57:17.637Z,3.53
2022-11-05T22:59:47.829Z,3.33
2022-11-05T23:02:17.414Z,3.50
2022-11-05T23:04:49.104Z,3.15
2022-11-05T23:07:35.291Z,3.08
2022-11-05T23:10:24.550Z,3.95
2022-11-05T23:12:53.823Z,4.03
2022-11-05T23:15:42.024Z,2.63
2022-11-05T23:18:28.875Z,3.05
2022-11-05T23:21:19.230Z,3.50
2022-11-05T23:24:07.483Z,3.78
2022-11-05T23:26:52.220Z,2.97
2022-11-05T23:29:22.861Z,3.40
2022-11-05T23:32:10.851Z,5.07
2022-11-05T23:34:40.527Z,4.28
2022-11-05T23:37:27.726Z,4.32
2022-11-05T23:39:57.229Z,3.30
2022-11-05T23:42:45.906Z,5.13
2022-11-05T23:45:47.163Z,3.92
2022-11-05T23:48:21.089Z,3.10
2022-11-05T23:50:52.911Z,3.47
2022-11-05T23:53:22.833Z,2.85
2022-11-05T23:55:52.345Z,3.20
2022-11-05T23:58:24.151Z,3.63
